Sandy, Texas
Current Conditions -  °F | °C
As of 6:35 PM on Friday 24 Oct 2014 (Local Time) from KDZB Reporting Station
Scattered Clouds Scattered Clouds  
Wind Chill: 80°   Ceiling: Unl
Heat Index: 80°   Visibility: 10mi
Dew Point: 57°   Wind: 0mph
Humidity: 45%   Direction: NA
Pressure: 30.09"   Gusts: NA
Location:  30.36°N, 98.47°W
Report Text: KDZB 242335Z AUTO 00000KT 10SM SCT060 27/14 A3009 RMK AO2 T02670137
Loading
Personal Weather Stations






























Interactive Weather Map
Tropical Storm Tracking
New forecast layout! Learn more

10-Day Weather Forecast

Advertisements
Track Severe Weather on mobile